createdAt,value
2022-11-16T00:00:20.007Z,99685.90
2022-11-16T00:03:04.824Z,99684.86
2022-11-16T00:05:32.453Z,99675.97
2022-11-16T00:08:00.099Z,99677.01
2022-11-16T00:10:27.709Z,99678.93
2022-11-16T00:12:55.340Z,99668.48
2022-11-16T00:15:22.971Z,99666.55
2022-11-16T00:17:50.571Z,99663.26
2022-11-16T00:20:18.176Z,99660.46
2022-11-16T00:22:45.742Z,99660.82
2022-11-16T00:25:13.407Z,99658.39
2022-11-16T00:27:41.001Z,99658.55
2022-11-16T00:30:09.114Z,99656.11
2022-11-16T00:32:36.708Z,99656.64
2022-11-16T00:35:04.564Z,99655.94
2022-11-16T00:37:32.392Z,99653.85
2022-11-16T00:39:59.957Z,99648.27
2022-11-16T00:42:27.540Z,99640.79
2022-11-16T00:44:55.109Z,99632.77
2022-11-16T00:47:22.655Z,99628.06
2022-11-16T00:49:50.443Z,99620.75
2022-11-16T00:52:18.004Z,99618.48
2022-11-16T00:54:45.691Z,99619.35
2022-11-16T00:57:13.246Z,99616.04
2022-11-16T00:59:40.859Z,99616.39
2022-11-16T01:02:08.418Z,99616.22
2022-11-16T01:04:36.048Z,99613.08
2022-11-16T01:07:03.723Z,99607.84
2022-11-16T01:09:31.542Z,99603.33
2022-11-16T01:11:59.115Z,99603.14
2022-11-16T01:14:26.760Z,99604.36
2022-11-16T01:16:54.378Z,99596.70
2022-11-16T01:19:21.941Z,99589.38
2022-11-16T01:21:49.521Z,99585.55
2022-11-16T01:24:17.112Z,99581.38
2022-11-16T01:26:44.687Z,99576.66
2022-11-16T01:29:12.300Z,99575.45
2022-11-16T01:31:39.931Z,99578.59
2022-11-16T01:34:08.035Z,99573.00
2022-11-16T01:36:35.636Z,99572.66
2022-11-16T01:39:04.967Z,99569.19
2022-11-16T01:41:33.126Z,99563.79
2022-11-16T01:44:05.117Z,99557.67
2022-11-16T01:46:32.951Z,99553.84
2022-11-16T01:49:06.745Z,99551.22
2022-11-16T01:51:35.203Z,99548.09
2022-11-16T01:54:08.542Z,99542.17
2022-11-16T01:56:38.830Z,99542.51
2022-11-16T01:59:06.775Z,99539.73
2022-11-16T02:01:34.466Z,99532.59
2022-11-16T02:04:02.141Z,99527.71
2022-11-16T02:06:59.685Z,99526.14
2022-11-16T02:09:48.406Z,99524.05
2022-11-16T02:12:36.361Z,99520.91
2022-11-16T02:15:19.100Z,99520.23
2022-11-16T02:18:05.413Z,99514.98
2022-11-16T02:21:04.085Z,99510.80
2022-11-16T02:23:53.380Z,99509.24
2022-11-16T02:26:33.269Z,99509.42
2022-11-16T02:29:23.839Z,99508.91
2022-11-16T02:31:55.758Z,99502.10
2022-11-16T02:34:32.072Z,99499.83
2022-11-16T02:37:02.220Z,99493.56
2022-11-16T02:39:32.691Z,99495.65
2022-11-16T02:42:02.765Z,99493.91
2022-11-16T02:44:34.367Z,99495.83
2022-11-16T02:47:07.695Z,99492.70
2022-11-16T02:49:45.488Z,99488.85
2022-11-16T02:52:16.303Z,99486.41
2022-11-16T02:54:46.152Z,99477.88
2022-11-16T02:57:32.087Z,99477.87
2022-11-16T03:00:01.291Z,99470.20
2022-11-16T03:02:36.166Z,99470.38
2022-11-16T03:05:27.805Z,99474.38
2022-11-16T03:08:00.790Z,99467.58
2022-11-16T03:10:29.937Z,99467.39
2022-11-16T03:13:01.944Z,99462.88
2022-11-16T03:15:39.997Z,99465.84
2022-11-16T03:18:16.800Z,99459.73
2022-11-16T03:20:46.723Z,99457.47
2022-11-16T03:23:14.877Z,99455.55
2022-11-16T03:26:15.394Z,99454.33
2022-11-16T03:28:48.855Z,99452.41
2022-11-16T03:31:28.300Z,99449.80
2022-11-16T03:34:00.978Z,99447.02
2022-11-16T03:36:32.597Z,99442.83
2022-11-16T03:39:02.792Z,99440.23
2022-11-16T03:41:32.426Z,99437.61
2022-11-16T03:44:01.126Z,99431.85
2022-11-16T03:46:28.920Z,99428.19
2022-11-16T03:49:00.612Z,99422.45
2022-11-16T03:51:28.247Z,99430.27
2022-11-16T03:53:55.845Z,99428.71
2022-11-16T03:56:23.459Z,99418.95
2022-11-16T03:58:51.051Z,99418.42
2022-11-16T04:01:18.768Z,99416.84
2022-11-16T04:03:46.503Z,99415.28
2022-11-16T04:06:14.267Z,99410.77
2022-11-16T04:08:41.925Z,99406.58
2022-11-16T04:11:19.262Z,99405.00
2022-11-16T04:13:47.454Z,99396.98
2022-11-16T04:16:15.065Z,99396.30
2022-11-16T04:18:42.670Z,99392.64
2022-11-16T04:21:22.243Z,99387.94
2022-11-16T04:23:49.998Z,99383.77
2022-11-16T04:26:18.089Z,99383.94
2022-11-16T04:28:48.354Z,99383.41
2022-11-16T04:31:15.937Z,99378.53
2022-11-16T04:33:44.204Z,99382.36
2022-11-16T04:36:15.373Z,99381.33
2022-11-16T04:38:45.557Z,99384.27
2022-11-16T04:41:13.201Z,99379.75
2022-11-16T04:43:40.792Z,99376.97
2022-11-16T04:46:08.357Z,99371.40
2022-11-16T04:48:36.313Z,99369.84
2022-11-16T04:51:04.372Z,99368.45
2022-11-16T04:53:31.981Z,99371.58
2022-11-16T04:56:00.981Z,99371.23
2022-11-16T04:58:28.768Z,99369.15
2022-11-16T05:00:56.417Z,99369.50
2022-11-16T05:03:24.137Z,99367.77
2022-11-16T05:05:51.761Z,99367.23
2022-11-16T05:08:19.305Z,99367.76
2022-11-16T05:10:51.039Z,99370.02
2022-11-16T05:13:18.619Z,99370.19
2022-11-16T05:15:46.471Z,99365.48
2022-11-16T05:18:14.074Z,99364.80
2022-11-16T05:20:41.821Z,99360.26
2022-11-16T05:23:09.823Z,99363.38
2022-11-16T05:25:37.671Z,99355.55
2022-11-16T05:28:05.343Z,99360.25
2022-11-16T05:30:32.942Z,99350.31
2022-11-16T05:33:00.543Z,99354.15
2022-11-16T05:35:28.113Z,99345.96
2022-11-16T05:37:55.704Z,99340.73
2022-11-16T05:40:23.279Z,99331.15
2022-11-16T05:42:50.863Z,99329.76
2022-11-16T05:45:20.965Z,99331.85
2022-11-16T05:47:48.916Z,99326.79
2022-11-16T05:50:16.649Z,99328.54
2022-11-16T05:52:44.231Z,99322.60
2022-11-16T05:55:11.829Z,99316.34
2022-11-16T05:57:39.387Z,99310.94
2022-11-16T06:00:07.732Z,99311.80
2022-11-16T06:02:35.371Z,99315.45
2022-11-16T06:05:03.285Z,99312.84
2022-11-16T06:07:30.968Z,99315.11
2022-11-16T06:09:58.588Z,99316.66
2022-11-16T06:12:26.233Z,99310.23
2022-11-16T06:14:53.788Z,99313.19
2022-11-16T06:17:21.361Z,99310.23
2022-11-16T06:19:49.000Z,99313.02
2022-11-16T06:22:16.573Z,99311.80
2022-11-16T06:24:44.166Z,99314.23
2022-11-16T06:27:11.710Z,99313.88
2022-11-16T06:29:39.292Z,99316.33
2022-11-16T06:32:06.931Z,99310.21
2022-11-16T06:34:34.541Z,99312.83
2022-11-16T06:37:02.155Z,99315.08
2022-11-16T06:39:29.726Z,99315.95
2022-11-16T06:41:57.311Z,99314.20
2022-11-16T06:44:24.884Z,99309.48
2022-11-16T06:46:52.476Z,99304.25
2022-11-16T06:49:20.049Z,99298.30
2022-11-16T06:51:47.616Z,99292.36
2022-11-16T06:54:15.165Z,99295.15
2022-11-16T06:56:42.732Z,99296.55
2022-11-16T06:59:10.274Z,99294.63
2022-11-16T07:01:38.450Z,99289.23
2022-11-16T07:04:08.456Z,99282.59
2022-11-16T07:06:36.106Z,99283.45
2022-11-16T07:09:07.347Z,99283.63
2022-11-16T07:11:36.163Z,99282.76
2022-11-16T07:14:04.402Z,99285.17
2022-11-16T07:16:34.255Z,99283.43
2022-11-16T07:19:02.244Z,99277.83
2022-11-16T07:21:30.781Z,99275.39
2022-11-16T07:23:58.353Z,99276.61
2022-11-16T07:26:25.978Z,99276.05
2022-11-16T07:28:53.550Z,99274.30
2022-11-16T07:31:21.150Z,99269.75
2022-11-16T07:33:48.692Z,99262.25
2022-11-16T07:36:16.387Z,99261.01
2022-11-16T07:38:44.355Z,99264.30
2022-11-16T07:41:17.429Z,99265.67
2022-11-16T07:43:51.529Z,99264.80
2022-11-16T07:46:46.156Z,99260.27
2022-11-16T07:49:14.255Z,99257.65
2022-11-16T07:51:42.591Z,99260.95
2022-11-16T07:54:14.644Z,99263.39
2022-11-16T07:56:42.623Z,99256.06
2022-11-16T07:59:10.275Z,99255.69
2022-11-16T08:01:37.939Z,99253.07
2022-11-16T08:04:05.517Z,99250.80
2022-11-16T08:06:33.096Z,99249.02
2022-11-16T08:09:00.661Z,99241.36
2022-11-16T08:11:28.293Z,99235.25
2022-11-16T08:13:56.536Z,99234.52
2022-11-16T08:16:24.121Z,99235.02
2022-11-16T08:18:51.826Z,99236.43
2022-11-16T08:21:19.903Z,99239.05
2022-11-16T08:23:47.477Z,99248.30
2022-11-16T08:26:17.643Z,99251.42
2022-11-16T08:28:47.671Z,99249.13
2022-11-16T08:31:21.129Z,99243.00
2022-11-16T08:33:48.710Z,99241.95
2022-11-16T08:36:16.288Z,99239.64
2022-11-16T08:38:45.190Z,99238.77
2022-11-16T08:41:13.373Z,99237.71
2022-11-16T08:43:41.148Z,99234.56
2022-11-16T08:46:10.379Z,99232.99
2022-11-16T08:48:38.405Z,99230.19
2022-11-16T08:51:20.409Z,99229.48
2022-11-16T08:53:49.704Z,99230.00
2022-11-16T08:56:18.726Z,99231.38
2022-11-16T08:58:46.781Z,99231.02
2022-11-16T09:01:17.495Z,99227.86
2022-11-16T09:03:45.595Z,99224.89
2022-11-16T09:06:13.924Z,99221.56
2022-11-16T09:08:43.383Z,99222.61
2022-11-16T09:11:18.293Z,99219.97
2022-11-16T09:13:47.662Z,99217.86
2022-11-16T09:16:15.685Z,99221.50
2022-11-16T09:18:47.789Z,99220.44
2022-11-16T09:21:20.772Z,99216.05
2022-11-16T09:23:49.257Z,99215.01
2022-11-16T09:26:17.969Z,99214.11
2022-11-16T09:28:45.579Z,99214.09
2022-11-16T09:31:15.563Z,99212.89
2022-11-16T09:33:46.579Z,99213.91
2022-11-16T09:36:14.204Z,99214.42
2022-11-16T09:39:17.845Z,99207.98
2022-11-16T09:41:46.129Z,99203.77
2022-11-16T09:44:29.083Z,99198.19
2022-11-16T09:46:59.451Z,99183.34
2022-11-16T09:49:36.340Z,99182.27
2022-11-16T09:52:09.774Z,99178.95
2022-11-16T09:54:42.376Z,99180.13
2022-11-16T09:57:14.679Z,99184.48
2022-11-16T09:59:49.588Z,99182.61
2022-11-16T10:02:40.220Z,99175.81
2022-11-16T10:05:16.212Z,99172.84
2022-11-16T10:07:47.037Z,99167.61
2022-11-16T10:10:36.792Z,99162.02
2022-11-16T10:13:23.430Z,99159.02
2022-11-16T10:15:53.650Z,99154.30
2022-11-16T10:18:32.353Z,99145.39
2022-11-16T10:21:18.067Z,99137.31
2022-11-16T10:24:17.486Z,99137.13
2022-11-16T10:27:05.818Z,99135.04
2022-11-16T10:30:09.157Z,99133.64
2022-11-16T10:32:47.273Z,99132.90
2022-11-16T10:35:27.369Z,99126.59
2022-11-16T10:37:55.720Z,99119.79
2022-11-16T10:40:29.874Z,99115.77
2022-11-16T10:43:18.804Z,99111.05
2022-11-16T10:46:20.139Z,99115.53
2022-11-16T10:49:00.406Z,99113.96
2022-11-16T10:51:28.037Z,99110.30
2022-11-16T10:53:55.683Z,99110.83
2022-11-16T10:56:47.059Z,99111.14
2022-11-16T10:59:18.666Z,99099.55
2022-11-16T11:01:50.176Z,99097.58
2022-11-16T11:04:21.924Z,99092.48
2022-11-16T11:06:52.720Z,99085.50
2022-11-16T11:09:32.072Z,99080.79
2022-11-16T11:12:01.151Z,99075.89
2022-11-16T11:14:28.743Z,99065.40
2022-11-16T11:17:11.245Z,99061.55
2022-11-16T11:19:38.788Z,99062.79
2022-11-16T11:22:13.733Z,99061.39
2022-11-16T11:24:47.534Z,99065.92
2022-11-16T11:27:22.309Z,99058.91
2022-11-16T11:29:54.307Z,99053.63
2022-11-16T11:32:25.048Z,99048.70
2022-11-16T11:34:54.541Z,99047.46
2022-11-16T11:37:29.815Z,99048.14
2022-11-16T11:40:17.154Z,99047.77
2022-11-16T11:42:57.050Z,99047.42
2022-11-16T11:45:50.431Z,99043.91
2022-11-16T11:48:29.980Z,99038.45
2022-11-16T11:51:32.843Z,99035.96
2022-11-16T11:54:04.679Z,99027.85
2022-11-16T11:56:33.355Z,99029.19
2022-11-16T11:59:04.716Z,99032.48
2022-11-16T12:01:57.516Z,99026.72
2022-11-16T12:04:43.145Z,99024.08
2022-11-16T12:07:35.290Z,99026.86
2022-11-16T12:10:02.810Z,99029.46
2022-11-16T12:12:50.527Z,99031.38
2022-11-16T12:16:09.529Z,99019.67
2022-11-16T12:19:14.147Z,99015.80
2022-11-16T12:22:03.607Z,99015.21
2022-11-16T12:24:46.538Z,99013.09
2022-11-16T12:27:43.476Z,99016.24
2022-11-16T12:30:19.204Z,99011.01
2022-11-16T12:33:13.955Z,99008.73
2022-11-16T12:36:00.883Z,99006.80
2022-11-16T12:38:47.380Z,99005.77
2022-11-16T12:41:26.895Z,99001.74
2022-11-16T12:44:10.935Z,99002.64
2022-11-16T12:46:57.487Z,98996.71
2022-11-16T12:49:27.723Z,98998.48
2022-11-16T12:52:21.839Z,98999.91
2022-11-16T12:55:25.479Z,98995.58
2022-11-16T12:58:03.780Z,98993.92
2022-11-16T13:00:45.028Z,98994.17
2022-11-16T13:03:31.594Z,98990.89
2022-11-16T13:06:05.048Z,98987.97
2022-11-16T13:08:40.073Z,98991.30
2022-11-16T13:11:22.358Z,98990.45
2022-11-16T13:13:56.356Z,98989.77
2022-11-16T13:16:25.165Z,98991.32
2022-11-16T13:18:54.403Z,98985.39
2022-11-16T13:21:40.250Z,98987.99
2022-11-16T13:24:24.503Z,98985.88
2022-11-16T13:27:10.512Z,98983.78
2022-11-16T13:29:46.417Z,98984.28
2022-11-16T13:32:24.188Z,98982.36
2022-11-16T13:34:52.541Z,98982.20
2022-11-16T13:37:38.298Z,98979.41
2022-11-16T13:40:05.929Z,98979.38
2022-11-16T13:42:39.072Z,98975.37
2022-11-16T13:45:19.126Z,98974.66
2022-11-16T13:47:53.034Z,98972.02
2022-11-16T13:50:24.248Z,98981.27
2022-11-16T13:55:45.448Z,98976.23
2022-11-16T13:58:21.564Z,98972.39
2022-11-16T14:01:01.326Z,98972.88
2022-11-16T14:03:32.861Z,98969.35
2022-11-16T14:06:00.761Z,98961.11
2022-11-16T14:08:34.280Z,98961.13
2022-11-16T14:11:01.979Z,98959.39
2022-11-16T14:13:39.698Z,98962.01
2022-11-16T14:16:19.661Z,98960.77
2022-11-16T14:18:51.567Z,98956.60
2022-11-16T14:21:19.141Z,98953.84
2022-11-16T14:24:05.364Z,98955.08
2022-11-16T14:26:36.044Z,98946.36
2022-11-16T14:29:25.145Z,98945.49
2022-11-16T14:31:55.815Z,98948.98
2022-11-16T14:34:32.730Z,98944.83
2022-11-16T14:37:00.597Z,98944.31
2022-11-16T14:39:43.244Z,98943.64
2022-11-16T14:42:22.592Z,98941.40
2022-11-16T14:44:57.231Z,98940.70
2022-11-16T14:47:26.993Z,98939.98
2022-11-16T14:49:55.541Z,98937.55
2022-11-16T14:52:45.359Z,98941.60
2022-11-16T14:55:21.546Z,98938.28
2022-11-16T14:57:49.106Z,98933.57
2022-11-16T15:00:21.244Z,98933.05
2022-11-16T15:02:57.688Z,98928.32
2022-11-16T15:05:34.497Z,98927.63
2022-11-16T15:08:07.868Z,98924.52
2022-11-16T15:10:35.757Z,98923.56
2022-11-16T15:13:04.212Z,98923.13
2022-11-16T15:15:31.959Z,98925.98
2022-11-16T15:17:59.623Z,98926.50
2022-11-16T15:20:30.345Z,98931.42
2022-11-16T15:22:59.209Z,98928.64
2022-11-16T15:25:28.589Z,98925.14
2022-11-16T15:27:58.229Z,98923.23
2022-11-16T15:30:29.120Z,98914.85
2022-11-16T15:32:57.292Z,98912.91
2022-11-16T15:35:28.271Z,98916.00
2022-11-16T15:38:06.460Z,98914.79
2022-11-16T15:40:34.848Z,98913.05
2022-11-16T15:43:05.052Z,98914.08
2022-11-16T15:45:33.886Z,98914.95
2022-11-16T15:48:02.559Z,98912.86
2022-11-16T15:50:30.962Z,98912.52
2022-11-16T15:52:59.188Z,98913.05
2022-11-16T15:55:29.787Z,98912.17
2022-11-16T15:58:19.658Z,98912.40
2022-11-16T16:00:48.213Z,98912.27
2022-11-16T16:03:21.475Z,98904.29
2022-11-16T16:05:49.611Z,98906.42
2022-11-16T16:08:27.643Z,98903.66
2022-11-16T16:10:58.907Z,98901.80
2022-11-16T16:13:40.289Z,98903.07
2022-11-16T16:16:17.079Z,98902.95
2022-11-16T16:18:45.447Z,98898.64
2022-11-16T16:21:13.563Z,98901.30
2022-11-16T16:23:50.509Z,98897.66
2022-11-16T16:26:18.318Z,98897.14
2022-11-16T16:28:45.944Z,98900.66
2022-11-16T16:31:13.712Z,98899.67
2022-11-16T16:33:44.037Z,98901.97
2022-11-16T16:36:11.603Z,98901.30
2022-11-16T16:38:40.058Z,98900.79
2022-11-16T16:41:08.087Z,98901.52
2022-11-16T16:43:35.903Z,98904.01
2022-11-16T16:46:04.176Z,98899.66
2022-11-16T16:48:31.739Z,98896.02
2022-11-16T16:50:59.318Z,98898.99
2022-11-16T16:53:27.150Z,98897.09
2022-11-16T16:55:54.780Z,98896.08
2022-11-16T16:58:25.110Z,98894.16
2022-11-16T17:00:56.933Z,98891.92
2022-11-16T17:03:27.545Z,98891.23
2022-11-16T17:06:00.004Z,98894.02
2022-11-16T17:08:32.324Z,98892.61
2022-11-16T17:11:01.867Z,98895.54
2022-11-16T17:13:29.743Z,98891.52
2022-11-16T17:15:57.323Z,98886.25
2022-11-16T17:18:26.215Z,98886.60
2022-11-16T17:20:53.829Z,98884.66
2022-11-16T17:23:21.447Z,98883.60
2022-11-16T17:25:49.005Z,98881.17
2022-11-16T17:28:16.595Z,98881.52
2022-11-16T17:30:44.384Z,98882.73
2022-11-16T17:33:12.047Z,98878.34
2022-11-16T17:35:39.708Z,98879.02
2022-11-16T17:38:09.911Z,98876.23
2022-11-16T17:40:37.490Z,98876.58
2022-11-16T17:43:05.091Z,98871.70
2022-11-16T17:45:32.787Z,98873.23
2022-11-16T17:48:00.388Z,98870.61
2022-11-16T17:50:27.959Z,98873.19
2022-11-16T17:52:55.584Z,98872.33
2022-11-16T17:55:23.191Z,98868.00
2022-11-16T17:57:50.858Z,98869.76
2022-11-16T18:00:18.828Z,98870.62
2022-11-16T18:02:46.445Z,98870.32
2022-11-16T18:05:14.140Z,98867.57
2022-11-16T18:07:41.704Z,98869.50
2022-11-16T18:10:09.689Z,98866.53
2022-11-16T18:12:37.484Z,98868.13
2022-11-16T18:15:27.540Z,98865.70
2022-11-16T18:17:53.312Z,98865.67
2022-11-16T18:20:20.908Z,98867.77
2022-11-16T18:22:48.568Z,98866.20
2022-11-16T18:25:16.225Z,98863.63
2022-11-16T18:27:43.818Z,98860.66
2022-11-16T18:30:11.715Z,98861.02
2022-11-16T18:32:39.338Z,98857.55
2022-11-16T18:35:07.253Z,98857.20
2022-11-16T18:37:34.801Z,98857.34
2022-11-16T18:40:03.108Z,98858.42
2022-11-16T18:42:30.684Z,98858.63
2022-11-16T18:44:58.254Z,98854.56
2022-11-16T18:47:25.894Z,98856.27
2022-11-16T18:49:53.854Z,98856.40
2022-11-16T18:52:21.514Z,98855.34
2022-11-16T18:54:49.112Z,98855.70
2022-11-16T18:57:16.729Z,98854.46
2022-11-16T18:59:44.321Z,98855.16
2022-11-16T19:02:12.882Z,98854.06
2022-11-16T19:04:41.213Z,98851.78
2022-11-16T19:07:10.159Z,98851.10
2022-11-16T19:09:37.756Z,98848.66
2022-11-16T19:12:05.501Z,98850.04
2022-11-16T19:14:33.115Z,98841.13
2022-11-16T19:17:00.737Z,98837.60
2022-11-16T19:19:28.295Z,98841.79
2022-11-16T19:21:55.884Z,98842.86
2022-11-16T19:24:26.190Z,98844.79
2022-11-16T19:26:53.749Z,98848.61
2022-11-16T19:29:21.661Z,98843.75
2022-11-16T19:31:49.244Z,98840.29
2022-11-16T19:34:16.836Z,98835.27
2022-11-16T19:36:44.400Z,98838.77
2022-11-16T19:39:12.073Z,98841.42
2022-11-16T19:41:39.736Z,98843.30
2022-11-16T19:44:07.367Z,98846.27
2022-11-16T19:46:34.950Z,98841.89
2022-11-16T19:49:02.984Z,98833.48
2022-11-16T19:51:32.924Z,98831.36
2022-11-16T19:54:01.812Z,98828.20
2022-11-16T19:56:29.591Z,98826.45
2022-11-16T19:58:57.215Z,98832.04
2022-11-16T20:01:26.966Z,98834.52
2022-11-16T20:03:57.197Z,98831.25
2022-11-16T20:06:27.796Z,98831.96
2022-11-16T20:08:57.586Z,98828.46
2022-11-16T20:11:27.409Z,98831.73
2022-11-16T20:13:57.483Z,98836.09
2022-11-16T20:16:30.686Z,98837.13
2022-11-16T20:19:01.675Z,98834.52
2022-11-16T20:21:31.683Z,98837.17
2022-11-16T20:24:06.076Z,98842.62
2022-11-16T20:26:35.746Z,98844.76
2022-11-16T20:29:04.090Z,98844.08
2022-11-16T20:31:33.351Z,98844.24
2022-11-16T20:34:05.584Z,98835.89
2022-11-16T20:36:33.873Z,98836.27
2022-11-16T20:39:01.463Z,98834.56
2022-11-16T20:41:32.505Z,98831.08
2022-11-16T20:44:01.955Z,98823.90
2022-11-16T20:46:31.546Z,98819.34
2022-11-16T20:49:00.109Z,98815.83
2022-11-16T20:51:28.976Z,98815.98
2022-11-16T20:53:57.057Z,98811.11
2022-11-16T20:56:24.913Z,98818.31
2022-11-16T20:58:52.694Z,98817.29
2022-11-16T21:01:22.813Z,98818.72
2022-11-16T21:03:50.533Z,98813.52
2022-11-16T21:06:18.056Z,98816.84
2022-11-16T21:08:45.652Z,98820.20
2022-11-16T21:11:19.871Z,98821.27
2022-11-16T21:13:47.857Z,98820.97
2022-11-16T21:16:15.712Z,98818.23
2022-11-16T21:18:43.328Z,98821.73
2022-11-16T21:21:13.279Z,98819.81
2022-11-16T21:23:42.947Z,98813.04
2022-11-16T21:26:12.757Z,98815.50
2022-11-16T21:28:41.155Z,98812.54
2022-11-16T21:31:17.685Z,98806.46
2022-11-16T21:33:45.998Z,98807.84
2022-11-16T21:36:18.980Z,98809.38
2022-11-16T21:38:46.913Z,98812.17
2022-11-16T21:41:15.749Z,98809.02
2022-11-16T21:43:43.355Z,98793.64
2022-11-16T21:46:19.756Z,98783.31
2022-11-16T21:48:47.905Z,98789.70
2022-11-16T21:51:18.160Z,98791.27
2022-11-16T21:53:46.272Z,98784.83
2022-11-16T21:56:19.137Z,98777.85
2022-11-16T21:58:47.329Z,98772.95
2022-11-16T22:01:16.501Z,98771.36
2022-11-16T22:03:44.262Z,98771.85
2022-11-16T22:06:14.860Z,98774.27
2022-11-16T22:08:43.295Z,98770.91
2022-11-16T22:11:11.330Z,98769.87
2022-11-16T22:13:39.107Z,98764.48
2022-11-16T22:16:08.940Z,98758.38
2022-11-16T22:18:37.059Z,98754.25
2022-11-16T22:21:05.484Z,98758.29
2022-11-16T22:23:33.777Z,98771.58
2022-11-16T22:26:12.650Z,98783.12
2022-11-16T22:28:40.748Z,98787.84
2022-11-16T22:31:15.089Z,98793.77
2022-11-16T22:33:42.766Z,98795.20
2022-11-16T22:36:10.744Z,98796.30
2022-11-16T22:38:38.321Z,98789.48
2022-11-16T22:41:06.061Z,98787.89
2022-11-16T22:43:34.058Z,98780.40
2022-11-16T22:46:04.408Z,98780.73
2022-11-16T22:48:33.657Z,98780.52
2022-11-16T22:51:04.648Z,98793.42
2022-11-16T22:53:32.696Z,98797.08
2022-11-16T22:56:08.261Z,98795.20
2022-11-16T22:58:37.501Z,98798.89
2022-11-16T23:01:06.983Z,98791.02
2022-11-16T23:03:35.438Z,98789.42
2022-11-16T23:06:04.410Z,98784.14
2022-11-16T23:08:32.716Z,98781.15
2022-11-16T23:11:07.803Z,98777.30
2022-11-16T23:13:35.658Z,98781.83
2022-11-16T23:16:04.700Z,98782.88
2022-11-16T23:18:32.288Z,98783.74
2022-11-16T23:20:59.870Z,98777.46
2022-11-16T23:23:27.497Z,98773.41
2022-11-16T23:25:55.132Z,98770.04
2022-11-16T23:28:22.747Z,98770.70
2022-11-16T23:30:50.411Z,98769.45
2022-11-16T23:33:17.960Z,98767.32
2022-11-16T23:35:45.553Z,98769.17
2022-11-16T23:38:13.147Z,98767.92
2022-11-16T23:40:40.770Z,98769.85
2022-11-16T23:43:10.265Z,98765.85
2022-11-16T23:45:39.196Z,98761.89
2022-11-16T23:48:08.383Z,98765.23
2022-11-16T23:50:36.910Z,98771.40
2022-11-16T23:53:05.957Z,98771.05
2022-11-16T23:55:35.787Z,98765.15
2022-11-16T23:58:05.759Z,98768.11
